Time;durP1;ratioP1;P1;durP2;ratioP2;P2;SDS_P1;SDS_P2;PMS_P1;PMS_P2;Temp;Humidity;BMP_temperature;BMP_pressure;BME280_temperature;BME280_humidity;BME280_pressure;Samples;Min_cycle;Max_cycle;Signal;HPM_P1;HPM_P2
2022/04/07 00:01:08;;;;;;;8.13;6.57;;;11.00;99.90;;;;;;5013560;28;20429;-63
2022/04/07 00:03:34;;;;;;;15.27;6.53;;;10.90;99.90;;;;;;5013753;28;20447;-63
2022/04/07 00:06:01;;;;;;;12.55;6.72;;;11.00;99.90;;;;;;5011907;28;20422;-63
2022/04/07 00:08:27;;;;;;;10.27;7.25;;;11.10;99.90;;;;;;5013260;28;20036;-63
2022/04/07 00:10:53;;;;;;;11.93;7.40;;;11.10;99.90;;;;;;5013001;28;20033;-62
2022/04/07 00:13:19;;;;;;;8.77;6.82;;;11.10;99.90;;;;;;5013012;28;20021;-63
2022/04/07 00:15:45;;;;;;;8.38;6.20;;;11.10;99.90;;;;;;5013081;28;20528;-64
2022/04/07 00:18:11;;;;;;;13.48;6.97;;;11.10;99.90;;;;;;5012930;28;20034;-62
2022/04/07 00:20:36;;;;;;;18.00;7.28;;;11.20;99.90;;;;;;5012685;28;20037;-63
2022/04/07 00:23:03;;;;;;;11.02;7.38;;;11.20;99.90;;;;;;5012193;28;20446;-63
2022/04/07 00:25:30;;;;;;;12.55;7.28;;;11.20;99.90;;;;;;5013112;28;20029;-61
2022/04/07 00:27:56;;;;;;;10.32;6.80;;;11.30;99.90;;;;;;5012844;28;20397;-63
2022/04/07 00:30:22;;;;;;;9.90;6.85;;;11.30;99.90;;;;;;5011233;28;20030;-61
2022/04/07 00:32:49;;;;;;;11.52;7.60;;;11.30;99.90;;;;;;5011546;28;20180;-64
2022/04/07 00:35:16;;;;;;;7.78;6.65;;;11.30;99.90;;;;;;5011627;28;20114;-64
2022/04/07 00:37:42;;;;;;;17.35;7.15;;;11.40;99.90;;;;;;5012569;28;20030;-65
2022/04/07 00:40:10;;;;;;;12.45;8.40;;;11.40;99.90;;;;;;5010701;28;20393;-63
2022/04/07 00:42:49;;;;;;;12.02;6.72;;;11.40;99.90;;;;;;5012394;28;20517;-63
2022/04/07 00:45:17;;;;;;;11.30;6.70;;;11.30;99.90;;;;;;5011075;28;20497;-63
2022/04/07 00:47:44;;;;;;;16.13;7.50;;;11.40;99.90;;;;;;5012463;28;20099;-64
2022/04/07 00:50:11;;;;;;;11.93;7.00;;;11.50;99.90;;;;;;5012235;28;20022;-64
2022/04/07 00:53:06;;;;;;;15.02;6.65;;;11.50;99.90;;;;;;5012345;28;20048;-64
2022/04/07 00:55:32;;;;;;;16.35;7.43;;;11.40;99.90;;;;;;5012378;28;20022;-63
2022/04/07 00:57:59;;;;;;;12.20;7.03;;;11.40;99.90;;;;;;5012289;28;20033;-63
2022/04/07 01:00:24;;;;;;;12.60;7.88;;;11.40;99.90;;;;;;5012137;28;20014;-64
2022/04/07 01:02:50;;;;;;;9.95;7.40;;;11.40;99.90;;;;;;5012083;28;20513;-63
2022/04/07 01:05:18;;;;;;;13.68;5.63;;;11.40;99.90;;;;;;5012248;28;20264;-64
2022/04/07 01:07:44;;;;;;;7.28;5.60;;;11.40;99.90;;;;;;5012309;28;20022;-64
2022/04/07 01:10:10;;;;;;;19.17;7.28;;;11.50;99.90;;;;;;5011793;28;20660;-63
2022/04/07 01:12:36;;;;;;;7.50;5.93;;;11.40;99.90;;;;;;5011921;28;20156;-63
2022/04/07 01:15:05;;;;;;;10.02;6.38;;;11.50;99.90;;;;;;5011936;28;20481;-64
2022/04/07 01:17:31;;;;;;;10.55;6.10;;;11.50;99.90;;;;;;5011720;28;20033;-64
2022/04/07 01:19:57;;;;;;;9.35;5.75;;;11.50;99.90;;;;;;5011786;28;20022;-64
2022/04/07 01:22:23;;;;;;;9.20;6.38;;;11.50;99.90;;;;;;5011669;28;20025;-63
2022/04/07 01:24:49;;;;;;;17.02;6.78;;;11.50;99.90;;;;;;5011681;28;20026;-64
2022/04/07 01:27:16;;;;;;;7.80;6.22;;;11.40;99.90;;;;;;5011598;28;20084;-64
2022/04/07 01:29:43;;;;;;;12.60;7.90;;;11.50;99.90;;;;;;5010340;28;20516;-64
2022/04/07 01:32:28;;;;;;;10.82;7.07;;;11.60;99.90;;;;;;5011839;28;20057;-63
2022/04/07 01:34:54;;;;;;;9.80;6.47;;;11.50;99.90;;;;;;5010864;28;20107;-63
2022/04/07 01:37:19;;;;;;;10.75;6.82;;;11.50;99.90;;;;;;5011560;28;20026;-62
2022/04/07 01:39:49;;;;;;;13.63;7.70;;;11.50;99.90;;;;;;5010973;28;20518;-64
2022/04/07 01:42:15;;;;;;;16.10;8.90;;;11.50;99.90;;;;;;5011654;28;20029;-63
2022/04/07 01:44:50;;;;;;;21.88;8.38;;;11.50;99.90;;;;;;5011450;28;20022;-64
2022/04/07 01:47:20;;;;;;;12.65;7.60;;;11.50;99.90;;;;;;5011316;28;20471;-64
2022/04/07 01:49:51;;;;;;;10.15;6.15;;;11.60;99.90;;;;;;5011675;28;20037;-63
2022/04/07 01:52:17;;;;;;;17.92;5.53;;;11.60;99.90;;;;;;5010260;28;20158;-63
2022/04/07 01:54:43;;;;;;;9.45;6.30;;;11.60;99.90;;;;;;5011325;28;20033;-63
2022/04/07 01:57:10;;;;;;;12.50;7.43;;;11.70;99.90;;;;;;5011199;28;20546;-63
2022/04/07 01:59:37;;;;;;;13.10;7.13;;;11.60;99.90;;;;;;5011087;28;20048;-63
2022/04/07 02:02:03;;;;;;;18.63;9.13;;;11.60;99.90;;;;;;5009646;28;20030;-64
2022/04/07 02:04:28;;;;;;;11.88;6.47;;;11.70;99.90;;;;;;5011154;28;20221;-64
2022/04/07 02:06:54;;;;;;;12.65;6.68;;;11.60;99.90;;;;;;5011032;28;20144;-64
2022/04/07 02:09:20;;;;;;;11.60;6.72;;;11.60;99.90;;;;;;5010923;28;20382;-63
2022/04/07 02:11:46;;;;;;;25.85;7.32;;;11.50;99.90;;;;;;5009533;28;20022;-65
2022/04/07 02:14:12;;;;;;;13.52;7.18;;;11.50;99.90;;;;;;5010935;28;20474;-64
2022/04/07 02:16:37;;;;;;;14.68;7.88;;;11.40;99.90;;;;;;5009776;28;20018;-62
2022/04/07 02:19:03;;;;;;;14.00;7.25;;;11.40;99.90;;;;;;5009387;28;20122;-63
2022/04/07 02:21:29;;;;;;;22.65;7.90;;;11.40;99.90;;;;;;5010912;28;20038;-63
2022/04/07 02:23:56;;;;;;;17.02;7.55;;;11.40;99.90;;;;;;5010894;28;20161;-63
2022/04/07 02:26:22;;;;;;;13.95;6.47;;;11.40;99.90;;;;;;5010924;28;20101;-62
2022/04/07 02:28:48;;;;;;;11.52;6.38;;;11.40;99.90;;;;;;5009528;28;20143;-64
2022/04/07 02:31:13;;;;;;;14.15;6.10;;;11.50;99.90;;;;;;5010433;28;20022;-64
2022/04/07 02:33:40;;;;;;;14.85;6.50;;;11.50;99.90;;;;;;5009171;28;20026;-63
2022/04/07 02:36:07;;;;;;;19.75;6.38;;;11.60;99.90;;;;;;5009411;28;20034;-63
2022/04/07 02:38:35;;;;;;;11.63;5.35;;;11.50;99.90;;;;;;5009339;28;20036;-63
2022/04/07 02:41:00;;;;;;;18.27;6.25;;;11.50;99.90;;;;;;5010172;28;20416;-63
2022/04/07 02:43:26;;;;;;;10.65;5.22;;;11.50;99.90;;;;;;5010636;28;20080;-63
2022/04/07 02:45:52;;;;;;;13.52;5.55;;;11.50;99.90;;;;;;5012665;28;20026;-62
2022/04/07 02:48:18;;;;;;;7.35;4.85;;;11.50;99.90;;;;;;5013483;28;20037;-63
2022/04/07 02:50:44;;;;;;;14.30;5.40;;;11.40;99.90;;;;;;5013315;28;20025;-63
2022/04/07 02:53:10;;;;;;;9.35;5.10;;;11.40;99.90;;;;;;5014697;28;20073;-64
2022/04/07 02:55:36;;;;;;;16.23;4.90;;;11.40;99.90;;;;;;5013594;28;20033;-63
2022/04/07 02:58:02;;;;;;;16.65;6.60;;;11.40;99.90;;;;;;5013356;28;20030;-63
2022/04/07 03:00:27;;;;;;;11.48;4.32;;;11.40;99.90;;;;;;5014774;28;20025;-64
2022/04/07 03:02:53;;;;;;;15.90;5.55;;;11.40;99.90;;;;;;5015134;28;20026;-64
2022/04/07 03:05:19;;;;;;;18.63;6.15;;;11.40;99.90;;;;;;5015370;28;20348;-64
2022/04/07 03:07:45;;;;;;;14.60;5.20;;;11.40;99.90;;;;;;5014565;28;20025;-63
2022/04/07 03:10:11;;;;;;;16.58;5.07;;;11.50;99.90;;;;;;5015828;28;20057;-63
2022/04/07 03:12:37;;;;;;;14.23;5.07;;;11.40;99.90;;;;;;5015351;28;20448;-64
2022/04/07 03:15:05;;;;;;;14.00;5.85;;;11.40;99.90;;;;;;5013869;28;20053;-63
2022/04/07 03:17:33;;;;;;;10.80;6.35;;;11.40;99.90;;;;;;5014801;28;20113;-63
2022/04/07 03:19:59;;;;;;;12.23;4.72;;;11.40;99.90;;;;;;5014163;28;20076;-63
2022/04/07 03:22:25;;;;;;;12.65;4.90;;;11.40;99.90;;;;;;5014145;28;20030;-63
2022/04/07 03:24:52;;;;;;;11.95;5.40;;;11.40;99.90;;;;;;5014116;28;20026;-63
2022/04/07 03:27:18;;;;;;;19.48;5.45;;;11.50;99.90;;;;;;5012711;28;20041;-63
2022/04/07 03:29:44;;;;;;;10.25;4.93;;;11.50;99.90;;;;;;5013840;28;20030;-63
2022/04/07 03:32:10;;;;;;;15.27;6.13;;;11.50;99.90;;;;;;5012669;28;20571;-63
2022/04/07 03:34:39;;;;;;;15.35;5.82;;;11.50;99.90;;;;;;5014096;28;20528;-63
2022/04/07 03:37:06;;;;;;;15.48;5.63;;;11.50;99.90;;;;;;5013790;28;20053;-63
2022/04/07 03:39:33;;;;;;;15.32;5.13;;;11.40;99.90;;;;;;5013306;28;20281;-64
2022/04/07 03:41:59;;;;;;;24.17;5.85;;;11.40;99.90;;;;;;5013654;28;20022;-63
2022/04/07 03:44:25;;;;;;;13.15;6.40;;;11.50;99.90;;;;;;5013633;28;20022;-63
2022/04/07 03:46:51;;;;;;;22.63;6.43;;;11.50;99.90;;;;;;5012437;28;20375;-63
2022/04/07 03:49:18;;;;;;;12.07;5.70;;;11.40;99.90;;;;;;5011949;28;20394;-63
2022/04/07 03:51:43;;;;;;;19.42;7.75;;;11.30;99.90;;;;;;5013550;28;20026;-63
2022/04/07 03:54:10;;;;;;;14.05;6.55;;;11.40;99.90;;;;;;5013552;28;20025;-63
2022/04/07 03:56:35;;;;;;;19.75;6.53;;;11.30;99.90;;;;;;5012470;28;20030;-64
2022/04/07 03:59:01;;;;;;;21.23;7.53;;;11.20;99.90;;;;;;5013347;28;20423;-64
2022/04/07 04:01:27;;;;;;;18.10;7.88;;;11.20;99.90;;;;;;5013370;28;20030;-63
2022/04/07 04:03:53;;;;;;;17.08;6.47;;;11.20;99.90;;;;;;5013255;28;20105;-63
2022/04/07 04:06:19;;;;;;;16.58;7.20;;;11.30;99.90;;;;;;5013319;28;20048;-64
2022/04/07 04:08:45;;;;;;;14.10;6.18;;;11.20;99.90;;;;;;5013656;28;20085;-64
2022/04/07 04:11:12;;;;;;;19.98;7.60;;;11.20;99.90;;;;;;5012947;28;20061;-64
2022/04/07 04:13:39;;;;;;;14.93;6.43;;;11.20;99.90;;;;;;5014433;28;20038;-64
2022/04/07 04:16:05;;;;;;;20.60;6.97;;;11.20;99.90;;;;;;5013227;28;20421;-63
2022/04/07 04:18:31;;;;;;;13.38;6.22;;;11.20;99.90;;;;;;5013375;28;20049;-63
2022/04/07 04:20:57;;;;;;;14.95;6.45;;;11.20;99.90;;;;;;5011729;28;20076;-63
2022/04/07 04:23:23;;;;;;;18.42;7.38;;;11.20;99.90;;;;;;5013421;28;20097;-64
2022/04/07 04:25:49;;;;;;;18.05;7.07;;;11.30;99.90;;;;;;5013578;28;20030;-64
2022/04/07 04:28:14;;;;;;;20.70;6.38;;;11.20;99.90;;;;;;5013086;28;20508;-64
2022/04/07 04:30:40;;;;;;;19.92;9.32;;;11.20;99.90;;;;;;5013171;28;20022;-64
2022/04/07 04:33:06;;;;;;;13.98;6.03;;;11.20;99.90;;;;;;5012720;28;20685;-64
2022/04/07 04:35:32;;;;;;;22.25;6.65;;;11.10;99.90;;;;;;5013219;28;20062;-63
2022/04/07 04:37:58;;;;;;;14.25;5.65;;;11.20;99.90;;;;;;5013074;28;20030;-64
2022/04/07 04:40:23;;;;;;;18.13;6.97;;;11.10;99.90;;;;;;5010840;28;20394;-64
2022/04/07 04:42:49;;;;;;;16.15;7.43;;;11.10;99.90;;;;;;5012776;28;20022;-63
2022/04/07 04:45:15;;;;;;;20.35;7.18;;;11.20;99.90;;;;;;5012438;28;20077;-63
2022/04/07 04:47:41;;;;;;;18.73;6.70;;;11.30;99.90;;;;;;5012826;28;20026;-64
2022/04/07 04:50:08;;;;;;;15.60;6.28;;;11.30;99.90;;;;;;5012553;28;20026;-64
2022/04/07 04:52:33;;;;;;;15.27;7.43;;;11.30;99.90;;;;;;5013223;28;20030;-64
2022/04/07 04:54:59;;;;;;;22.23;6.15;;;11.30;99.90;;;;;;5012818;28;20018;-64
2022/04/07 04:57:27;;;;;;;20.77;7.57;;;11.40;99.90;;;;;;5012218;28;20405;-63
2022/04/07 04:59:52;;;;;;;24.17;8.82;;;11.40;99.90;;;;;;5012391;28;20030;-65
2022/04/07 05:02:18;;;;;;;15.45;6.45;;;11.40;99.90;;;;;;5012286;28;20386;-64
2022/04/07 05:04:44;;;;;;;15.95;7.00;;;11.30;99.90;;;;;;5011136;28;20460;-64
2022/04/07 05:07:09;;;;;;;16.40;7.03;;;11.30;99.90;;;;;;5013001;28;20037;-64
2022/04/07 05:09:37;;;;;;;22.65;7.22;;;11.20;99.90;;;;;;5011448;28;20429;-65
2022/04/07 05:12:03;;;;;;;21.92;7.55;;;11.30;99.90;;;;;;5012076;28;20056;-65
2022/04/07 05:14:29;;;;;;;10.57;7.88;;;11.30;99.90;;;;;;5012071;28;20076;-64
2022/04/07 05:16:55;;;;;;;11.48;6.88;;;11.30;99.90;;;;;;5012035;28;20026;-64
2022/04/07 05:19:20;;;;;;;16.40;6.32;;;11.30;99.90;;;;;;5011754;28;20180;-64
2022/04/07 05:21:49;;;;;;;16.27;7.32;;;11.30;99.90;;;;;;5011830;28;20059;-64
2022/04/07 05:24:17;;;;;;;25.80;6.60;;;11.30;99.90;;;;;;5011798;28;20030;-65
2022/04/07 05:26:46;;;;;;;14.90;6.82;;;11.20;99.90;;;;;;5010717;28;20037;-66
2022/04/07 05:29:12;;;;;;;18.05;9.65;;;11.30;99.90;;;;;;5011932;28;20030;-64
2022/04/07 05:31:38;;;;;;;14.18;6.32;;;11.20;99.90;;;;;;5011532;28;20037;-64
2022/04/07 05:34:04;;;;;;;19.42;8.43;;;11.20;99.90;;;;;;5011691;28;20026;-62
2022/04/07 05:36:30;;;;;;;18.33;8.77;;;11.10;99.90;;;;;;5011968;28;20032;-63
2022/04/07 05:38:56;;;;;;;22.17;8.07;;;11.20;99.90;;;;;;5010945;28;20056;-64
2022/04/07 05:41:21;;;;;;;16.52;7.72;;;11.30;99.90;;;;;;5011434;28;20117;-62
2022/04/07 05:43:47;;;;;;;19.27;7.53;;;11.40;99.90;;;;;;5011821;28;20022;-63
2022/04/07 05:46:13;;;;;;;16.50;8.15;;;11.40;99.90;;;;;;5011688;28;20475;-63
2022/04/07 05:48:38;;;;;;;20.80;10.82;;;11.40;99.90;;;;;;5012118;28;20049;-65
2022/04/07 05:51:04;;;;;;;21.60;7.53;;;11.40;99.90;;;;;;5011518;28;20319;-63
2022/04/07 05:53:30;;;;;;;26.00;9.32;;;11.50;99.90;;;;;;5009942;28;20038;-64
2022/04/07 05:55:59;;;;;;;18.70;6.75;;;11.40;99.90;;;;;;5011581;28;20030;-64
2022/04/07 05:58:26;;;;;;;22.15;8.02;;;11.60;99.90;;;;;;5011495;28;20252;-64
2022/04/07 06:00:52;;;;;;;23.20;7.10;;;11.60;99.90;;;;;;5011331;28;20036;-64
2022/04/07 06:03:17;;;;;;;17.08;6.55;;;11.60;99.90;;;;;;5010134;28;20034;-64
2022/04/07 06:05:43;;;;;;;19.50;8.32;;;11.60;99.90;;;;;;5011381;28;20021;-63
2022/04/07 06:08:09;;;;;;;16.13;6.32;;;11.70;99.90;;;;;;5011590;28;20037;-63
2022/04/07 06:10:36;;;;;;;24.65;6.68;;;11.70;99.90;;;;;;5011833;28;20041;-64
2022/04/07 06:13:02;;;;;;;15.73;5.95;;;11.80;99.90;;;;;;5011278;28;20022;-64
2022/04/07 06:15:29;;;;;;;15.35;5.60;;;12.00;99.90;;;;;;5011332;28;20497;-63
2022/04/07 06:17:55;;;;;;;16.73;7.22;;;12.00;99.90;;;;;;5011418;28;20073;-63
2022/04/07 06:20:21;;;;;;;22.05;5.97;;;12.10;99.90;;;;;;5010478;28;20101;-64
2022/04/07 06:22:47;;;;;;;17.90;5.25;;;12.30;99.90;;;;;;5009440;28;20113;-66
2022/04/07 06:25:13;;;;;;;15.95;5.20;;;12.40;99.90;;;;;;5009669;28;20026;-65
2022/04/07 06:27:41;;;;;;;12.43;5.97;;;12.50;99.90;;;;;;5010944;28;20038;-64
2022/04/07 06:30:09;;;;;;;18.77;6.80;;;12.60;99.90;;;;;;5010876;28;20071;-63
2022/04/07 06:32:37;;;;;;;12.27;5.63;;;12.70;99.90;;;;;;5011393;28;20022;-64
2022/04/07 06:35:03;;;;;;;17.42;5.90;;;12.80;99.90;;;;;;5010874;28;20030;-63
2022/04/07 06:37:29;;;;;;;12.38;6.47;;;12.90;99.90;;;;;;5009613;28;20301;-63
2022/04/07 06:39:59;;;;;;;16.60;6.13;;;13.00;99.90;;;;;;5011072;28;20030;-65
2022/04/07 06:42:25;;;;;;;15.63;6.47;;;12.90;99.90;;;;;;5011873;28;20021;-64
2022/04/07 06:44:51;;;;;;;12.55;5.82;;;12.90;99.90;;;;;;5012053;28;20037;-64
2022/04/07 06:47:17;;;;;;;18.92;6.85;;;12.70;99.90;;;;;;5010925;28;20053;-64
2022/04/07 06:49:42;;;;;;;22.08;5.78;;;12.60;99.90;;;;;;5013290;28;20084;-63
2022/04/07 06:52:08;;;;;;;18.83;7.63;;;12.40;99.90;;;;;;5010897;28;20022;-65
2022/04/07 06:54:34;;;;;;;17.58;6.63;;;12.50;99.90;;;;;;5009494;28;20058;-64
2022/04/07 06:56:59;;;;;;;12.98;6.57;;;12.50;99.90;;;;;;5009155;28;20148;-64
2022/04/07 06:59:25;;;;;;;24.40;7.30;;;12.50;99.90;;;;;;5010478;28;20026;-65
2022/04/07 07:01:51;;;;;;;18.45;6.88;;;12.40;99.90;;;;;;5008849;28;20068;-64
2022/04/07 07:04:16;;;;;;;18.75;7.38;;;12.40;99.90;;;;;;5009316;28;20037;-63
2022/04/07 07:06:42;;;;;;;20.02;7.93;;;12.40;99.90;;;;;;5009452;28;20033;-64
2022/04/07 07:09:10;;;;;;;13.82;5.93;;;12.40;99.90;;;;;;5010725;28;20117;-64
2022/04/07 07:11:35;;;;;;;21.42;6.68;;;12.40;99.90;;;;;;5010479;28;20018;-64
2022/04/07 07:14:01;;;;;;;15.57;4.70;;;12.40;99.90;;;;;;5010510;28;20029;-65
2022/04/07 07:16:27;;;;;;;14.35;5.32;;;12.40;99.90;;;;;;5010419;28;20038;-64
2022/04/07 07:18:52;;;;;;;11.60;5.25;;;12.40;99.90;;;;;;5009162;28;20213;-64
2022/04/07 07:21:18;;;;;;;16.85;5.95;;;12.30;99.90;;;;;;5010420;28;20101;-63
2022/04/07 07:23:44;;;;;;;18.48;7.07;;;12.40;99.90;;;;;;5010347;28;20036;-65
2022/04/07 07:26:11;;;;;;;18.48;5.75;;;12.50;99.90;;;;;;5010419;28;20033;-63
2022/04/07 07:28:37;;;;;;;13.30;5.00;;;12.60;99.90;;;;;;5010391;28;20049;-63
2022/04/07 07:31:03;;;;;;;21.75;6.22;;;13.00;99.90;;;;;;5009503;28;20036;-64
2022/04/07 07:33:29;;;;;;;14.70;5.75;;;13.10;99.90;;;;;;5014265;28;20441;-65
2022/04/07 07:35:55;;;;;;;12.23;6.40;;;13.30;99.90;;;;;;5013907;28;20022;-64
2022/04/07 07:38:21;;;;;;;15.35;5.85;;;13.10;99.90;;;;;;5013993;28;20033;-63
2022/04/07 07:40:47;;;;;;;13.75;5.15;;;12.90;99.90;;;;;;5013229;28;20047;-65
2022/04/07 07:43:13;;;;;;;19.33;6.10;;;13.10;99.90;;;;;;5014444;28;20532;-64
2022/04/07 07:45:39;;;;;;;13.13;5.22;;;13.30;99.90;;;;;;5013856;28;20144;-65
2022/04/07 07:48:04;;;;;;;15.95;8.02;;;13.30;99.90;;;;;;5013903;28;20041;-64
2022/04/07 07:50:30;;;;;;;9.38;5.13;;;13.50;99.90;;;;;;5013424;28;20030;-63
2022/04/07 07:52:56;;;;;;;17.10;8.35;;;13.50;99.90;;;;;;5013636;28;20084;-63
2022/04/07 07:55:22;;;;;;;13.88;6.30;;;13.20;99.90;;;;;;5014016;28;20052;-65
2022/04/07 07:57:47;;;;;;;12.02;6.40;;;13.20;99.90;;;;;;5013435;28;20025;-64
2022/04/07 08:00:16;;;;;;;18.40;9.60;;;13.10;99.90;;;;;;5011996;28;20022;-64
2022/04/07 08:02:43;;;;;;;10.60;6.78;;;13.10;99.90;;;;;;5013288;28;20037;-64
2022/04/07 08:05:09;;;;;;;10.15;5.70;;;13.00;99.90;;;;;;5011927;28;20113;-64
2022/04/07 08:07:42;;;;;;;16.02;6.93;;;12.80;99.90;;;;;;5012123;28;20045;-63
2022/04/07 08:10:09;;;;;;;18.70;5.13;;;12.70;99.90;;;;;;5012920;28;20056;-64
2022/04/07 08:12:35;;;;;;;13.05;4.03;;;12.80;99.90;;;;;;5013856;28;20041;-63
2022/04/07 08:15:01;;;;;;;16.13;4.43;;;12.80;99.90;;;;;;5014230;28;20509;-65
2022/04/07 08:17:27;;;;;;;12.75;5.50;;;13.00;99.90;;;;;;5012955;28;20490;-64
2022/04/07 08:19:53;;;;;;;12.50;4.95;;;13.20;99.90;;;;;;5012865;28;20025;-64
2022/04/07 08:22:18;;;;;;;9.45;3.92;;;13.20;99.90;;;;;;5012890;28;20026;-65
2022/04/07 08:24:44;;;;;;;12.10;4.85;;;13.20;99.90;;;;;;5012819;28;20025;-64
2022/04/07 08:27:12;;;;;;;10.77;4.82;;;13.30;99.90;;;;;;5011395;28;20026;-65
2022/04/07 08:29:38;;;;;;;9.30;4.40;;;13.30;99.90;;;;;;5012897;28;20044;-64
2022/04/07 08:32:05;;;;;;;10.10;4.20;;;13.50;99.90;;;;;;5012853;28;20033;-64
2022/04/07 08:34:31;;;;;;;16.70;4.90;;;13.80;99.90;;;;;;5012912;28;20026;-63
2022/04/07 08:36:57;;;;;;;12.15;4.38;;;13.90;99.90;;;;;;5012990;28;20030;-63
2022/04/07 08:39:23;;;;;;;13.35;4.60;;;14.10;99.90;;;;;;5010500;28;20045;-64
2022/04/07 08:41:50;;;;;;;13.65;5.15;;;13.90;99.90;;;;;;5012364;28;20026;-64
2022/04/07 08:44:17;;;;;;;12.43;4.00;;;13.70;99.90;;;;;;5011929;28;20030;-63
2022/04/07 08:46:56;;;;;;;13.77;4.75;;;13.70;99.90;;;;;;5012432;28;20033;-63
2022/04/07 08:49:23;;;;;;;6.55;4.28;;;13.80;99.90;;;;;;5012289;28;20018;-64
2022/04/07 08:51:53;;;;;;;11.35;3.72;;;13.80;99.90;;;;;;5012240;28;20049;-64
2022/04/07 08:54:19;;;;;;;11.13;4.65;;;13.90;99.90;;;;;;5010975;28;20022;-63
2022/04/07 08:56:46;;;;;;;7.57;3.88;;;14.00;99.90;;;;;;5012649;28;20044;-64
2022/04/07 08:59:13;;;;;;;12.25;4.40;;;13.90;99.90;;;;;;5012165;28;20437;-63
2022/04/07 09:01:38;;;;;;;6.50;4.15;;;14.00;99.90;;;;;;5010949;28;20026;-64
2022/04/07 09:04:04;;;;;;;5.45;4.22;;;14.00;99.90;;;;;;5012765;28;20068;-63
2022/04/07 09:06:34;;;;;;;15.48;5.35;;;14.00;99.90;;;;;;5012507;28;20026;-63
2022/04/07 09:09:33;;;;;;;11.40;4.47;;;14.00;99.90;;;;;;5010781;28;20040;-63
2022/04/07 09:11:59;;;;;;;10.23;3.45;;;14.20;99.90;;;;;;5006832;28;20034;-63
2022/04/07 09:14:26;;;;;;;8.55;4.50;;;14.10;99.90;;;;;;5012528;28;20026;-63
2022/04/07 09:16:55;;;;;;;6.68;3.83;;;14.10;99.90;;;;;;5012242;28;20026;-63
2022/04/07 09:19:24;;;;;;;14.65;3.70;;;14.00;99.90;;;;;;5011867;28;20080;-63
2022/04/07 09:22:11;;;;;;;8.15;3.42;;;14.10;99.90;;;;;;5012216;28;20036;-63
2022/04/07 09:24:40;;;;;;;11.07;3.67;;;14.00;99.90;;;;;;5012224;28;20084;-64
2022/04/07 09:27:11;;;;;;;10.07;3.78;;;14.00;99.90;;;;;;5012102;28;20030;-64
2022/04/07 09:29:45;;;;;;;4.25;3.80;;;14.10;99.90;;;;;;5010491;28;20026;-64
2022/04/07 09:32:26;;;;;;;8.38;3.42;;;14.20;99.90;;;;;;5012178;28;20033;-64
2022/04/07 09:34:54;;;;;;;9.48;3.72;;;14.20;99.90;;;;;;4994375;28;20482;-65
2022/04/07 09:37:24;;;;;;;14.32;4.82;;;14.40;99.90;;;;;;5012612;28;20088;-64
2022/04/07 09:40:14;;;;;;;9.00;4.70;;;14.60;99.90;;;;;;5011726;28;20053;-65
2022/04/07 09:42:41;;;;;;;13.20;3.88;;;14.70;99.90;;;;;;5011610;28;20096;-64
2022/04/07 09:45:11;;;;;;;4.38;2.80;;;14.80;99.90;;;;;;5011305;28;20106;-65
2022/04/07 09:47:46;;;;;;;7.93;3.30;;;14.80;99.90;;;;;;5011464;28;20064;-64
2022/04/07 09:50:23;;;;;;;4.60;3.75;;;14.80;99.90;;;;;;5011242;28;20124;-64
2022/04/07 09:52:56;;;;;;;8.05;2.83;;;14.70;99.90;;;;;;5011473;28;20037;-64
2022/04/07 09:55:26;;;;;;;6.30;2.00;;;14.60;99.90;;;;;;5010980;28;20101;-64
2022/04/07 09:57:53;;;;;;;7.88;2.85;;;14.40;99.90;;;;;;5011139;28;20280;-64
2022/04/07 10:00:19;;;;;;;8.85;2.53;;;14.30;99.90;;;;;;4993793;28;20030;-64
2022/04/07 10:02:45;;;;;;;6.43;2.65;;;14.20;99.90;;;;;;5011631;28;20018;-64
2022/04/07 10:05:12;;;;;;;6.07;3.00;;;14.20;99.90;;;;;;5010166;28;20061;-64
2022/04/07 10:07:40;;;;;;;7.25;3.03;;;14.10;99.90;;;;;;5011750;28;20037;-64
2022/04/07 10:10:07;;;;;;;5.25;2.40;;;14.00;99.90;;;;;;5011270;28;20025;-64
2022/04/07 10:12:33;;;;;;;9.90;3.25;;;13.90;99.90;;;;;;5009909;28;20044;-62
2022/04/07 10:14:59;;;;;;;9.13;5.40;;;13.80;99.90;;;;;;5010929;28;20024;-63
2022/04/07 10:17:25;;;;;;;7.45;2.85;;;13.90;99.90;;;;;;5011127;28;20030;-64
2022/04/07 10:19:56;;;;;;;4.38;2.97;;;14.00;99.90;;;;;;5011017;28;20386;-64
2022/04/07 10:22:37;;;;;;;6.68;3.20;;;14.10;99.90;;;;;;5011740;28;20022;-66
2022/04/07 10:25:04;;;;;;;5.68;3.17;;;14.20;99.90;;;;;;5011349;28;20022;-64
2022/04/07 10:27:33;;;;;;;10.70;3.38;;;14.30;99.90;;;;;;5010419;28;20465;-65
2022/04/07 10:30:14;;;;;;;3.60;2.60;;;14.30;99.90;;;;;;5011566;28;20048;-64
2022/04/07 10:32:40;;;;;;;10.93;3.40;;;14.30;99.90;;;;;;5010879;28;20018;-64
2022/04/07 10:35:07;;;;;;;17.42;3.42;;;14.30;99.90;;;;;;5009783;28;20026;-64
2022/04/07 10:37:43;;;;;;;11.38;3.53;;;14.40;99.90;;;;;;5011548;28;20030;-63
2022/04/07 10:40:44;;;;;;;11.45;3.33;;;14.50;99.90;;;;;;5010422;28;20454;-64
2022/04/07 10:43:22;;;;;;;12.68;3.83;;;14.50;99.90;;;;;;5010731;28;20022;-63
2022/04/07 10:46:08;;;;;;;7.68;3.42;;;14.60;99.90;;;;;;5011276;28;20025;-63
2022/04/07 10:48:45;;;;;;;6.70;3.00;;;14.60;99.90;;;;;;5011403;28;20033;-63
2022/04/07 10:51:13;;;;;;;7.07;3.95;;;14.60;99.90;;;;;;5011062;28;20037;-64
2022/04/07 10:53:54;;;;;;;6.90;2.95;;;14.50;99.90;;;;;;5011306;28;20165;-64
2022/04/07 10:56:24;;;;;;;5.10;2.83;;;14.60;99.90;;;;;;5011117;28;20029;-63
2022/04/07 10:58:57;;;;;;;8.13;3.05;;;14.50;99.90;;;;;;5010525;28;20188;-64
2022/04/07 11:01:31;;;;;;;6.57;3.53;;;14.50;99.90;;;;;;5010813;28;20058;-65
2022/04/07 11:07:15;;;;;;;10.02;3.05;;;14.70;99.90;;;;;;5012537;28;20077;-64
2022/04/07 11:10:00;;;;;;;3.10;2.63;;;14.70;99.90;;;;;;5014652;28;20030;-62
2022/04/07 11:12:29;;;;;;;9.30;3.72;;;14.60;99.90;;;;;;5014384;28;20055;-64
2022/04/07 11:15:04;;;;;;;5.28;3.35;;;14.50;99.90;;;;;;5014366;28;20026;-65
2022/04/07 11:17:33;;;;;;;6.78;2.47;;;14.50;99.90;;;;;;5014381;28;20024;-64
2022/04/07 11:20:22;;;;;;;8.93;3.25;;;14.70;99.90;;;;;;5012960;28;20500;-63
2022/04/07 11:22:51;;;;;;;18.80;4.45;;;14.70;99.90;;;;;;5012771;28;20064;-63
2022/04/07 11:25:29;;;;;;;9.45;4.05;;;14.60;99.90;;;;;;5014609;28;20026;-64
2022/04/07 11:28:15;;;;;;;6.63;3.80;;;14.40;99.90;;;;;;5014446;28;20040;-64
2022/04/07 11:30:54;;;;;;;8.10;3.10;;;14.50;99.90;;;;;;5014387;28;20026;-65
2022/04/07 11:33:28;;;;;;;5.15;2.78;;;14.60;99.90;;;;;;5014319;28;20365;-64
2022/04/07 11:36:00;;;;;;;3.83;3.13;;;14.70;99.90;;;;;;5013570;28;20049;-64
2022/04/07 11:38:36;;;;;;;5.90;2.50;;;14.60;99.90;;;;;;5014213;28;20029;-64
2022/04/07 11:41:06;;;;;;;5.50;3.25;;;14.60;99.90;;;;;;5013411;28;20389;-64
2022/04/07 11:43:34;;;;;;;6.25;3.47;;;14.60;99.90;;;;;;5013105;28;20018;-64
2022/04/07 11:46:02;;;;;;;15.05;4.53;;;14.60;99.90;;;;;;5014607;28;20022;-65
2022/04/07 11:48:45;;;;;;;6.88;3.00;;;14.70;99.90;;;;;;5014563;28;20034;-64
2022/04/07 11:51:14;;;;;;;2.75;2.55;;;14.60;99.90;;;;;;5014226;28;20064;-64
2022/04/07 11:53:52;;;;;;;7.55;3.25;;;14.60;99.90;;;;;;5014149;28;20049;-64
2022/04/07 11:56:20;;;;;;;6.93;2.38;;;14.60;99.90;;;;;;5012792;28;20057;-64
2022/04/07 11:59:00;;;;;;;15.02;4.65;;;14.60;99.90;;;;;;5013874;28;20390;-65
2022/04/07 12:01:28;;;;;;;10.30;3.78;;;14.50;99.90;;;;;;5012469;28;20018;-65
2022/04/07 12:03:56;;;;;;;10.75;4.18;;;14.40;99.90;;;;;;5011987;28;20504;-64
2022/04/07 12:06:27;;;;;;;9.20;3.80;;;14.30;99.90;;;;;;5012437;28;20089;-64
2022/04/07 12:08:54;;;;;;;9.05;4.72;;;14.10;99.90;;;;;;5012230;28;20049;-64
2022/04/07 12:11:21;;;;;;;8.35;4.18;;;14.10;99.90;;;;;;5013400;28;20025;-63
2022/04/07 12:13:51;;;;;;;5.35;3.65;;;14.30;99.90;;;;;;5013650;28;20030;-64
2022/04/07 12:16:19;;;;;;;7.57;4.63;;;14.30;99.90;;;;;;5013762;28;20439;-63
2022/04/07 12:19:02;;;;;;;8.10;3.83;;;14.40;99.90;;;;;;5011518;28;20033;-64
2022/04/07 12:21:30;;;;;;;6.32;3.78;;;14.50;99.90;;;;;;5013513;28;20470;-64
2022/04/07 12:24:13;;;;;;;14.35;4.35;;;14.50;99.90;;;;;;5013199;28;20088;-64
2022/04/07 12:26:46;;;;;;;5.00;3.85;;;14.60;99.90;;;;;;5012875;28;20486;-65
2022/04/07 12:29:21;;;;;;;6.03;3.85;;;14.60;99.90;;;;;;5013387;28;20030;-64
2022/04/07 12:32:00;;;;;;;11.52;4.60;;;14.60;99.90;;;;;;5013144;28;20433;-66
2022/04/07 12:34:26;;;;;;;8.85;3.30;;;14.70;99.90;;;;;;5013204;28;20022;-63
2022/04/07 12:36:52;;;;;;;12.40;5.53;;;14.80;99.90;;;;;;5012817;28;20029;-65
2022/04/07 12:39:20;;;;;;;9.30;4.70;;;14.70;99.90;;;;;;5012359;28;20030;-65
2022/04/07 12:41:50;;;;;;;10.80;4.47;;;14.80;99.90;;;;;;5012945;28;20080;-63
2022/04/07 12:44:33;;;;;;;9.43;5.18;;;14.80;99.90;;;;;;5007160;28;20501;-64
2022/04/07 12:47:05;;;;;;;9.23;5.00;;;14.80;99.90;;;;;;5007461;28;20501;-65
2022/04/07 12:49:32;;;;;;;10.43;3.10;;;14.90;99.90;;;;;;5008753;28;20022;-64